Peoria, IL (61601)

7:00 PM CDT on July 27, 2016 (GMT -0500)
DracoPhyre PWS | | Change Station

Elev 640 ft 40.72 °N, 89.59 °W | Updated 1 second ago

Partly Cloudy
Partly Cloudy
86.5 °F
Feels Like 102 °F
N
1.6
Wind Variable Wind from East
Gusts 6.0 mph

Today
High -- | Low -- °F
--% Chance of Precip.
Yesterday
High -- | Low -- °F
Precip. -- in
Pressure 29.88 in
Visibility 10.0 miles
Clouds Few 3400 ft
Heat Index 102 °F
Dew Point 80 °F
Humidity 81%
Rainfall 0.00 in
Snow Depth Not available.
5:50 AM 8:18 PM
Last Quarter, 38% visible
METAR KPIA 272354Z 14006KT 10SM FEW034 29/22 A2990 RMK AO2 SLP118 T02890217 10311 20283 58016
Pressure 29.88 in
Visibility 10.0 miles
Clouds Few 3400 ft
Heat Index 102 °F
Dew Point 80 °F
Humidity 81%
Rainfall 0.00 in
Snow Depth Not available.
5:50 AM 8:18 PM
Last Quarter, 38% visible
METAR KPIA 272354Z 14006KT 10SM FEW034 29/22 A2990 RMK AO2 SLP118 T02890217 10311 20283 58016

10-Day Weather Forecast

Almanac

Astronomy

Jul. 27, 2016 Rise Set
Actual Time
Civil Twilight
Nautical Twilight
Astronomical Twilight
Moon
Length of Visible Light
Length of Day
Tomorrow will be .
, % of the Moon is Illuminated

Today's Extremes

State Highs State Lows

Community

WunderPhotos

Upload Photos

1,927,958 photos uploaded!

WunderBlog® & News

Nearby

Air Quality

  Air Quality AQ Index Pollutant
Not available.

Snow Depth

Station Depth Elevation

Earthquake Activity

City Distance Mag. Time & Date
Minimum magnitude displayed is 2.5.

Coastal Water Temperatures

Place Temperature

Stations

Nearby Weather Stations

Station Location Temp. Windchill Dew Point Humidity Wind Precip. Elev Updated Type
                   

Watches & Warnings

There are currently no watches in effect.